Time,TemperatureF,DewpointF,PressureIn,WindDirection,WindDirectionDegrees,WindSpeedMPH,WindSpeedGustMPH,Humidity,HourlyPrecipIn,Conditions,Clouds,dailyrainin,SoftwareType,DateUTC
2013-03-25 00:05:00,42.4,41.0,29.59,WNW,294,0.0,2.0,94,0.00,,,0.00,weatherlink.com 1.10,2013-03-25 04:05:00,
2013-03-25 00:20:00,42.3,41.0,29.60,NNW,348,0.0,1.0,94,0.00,,,0.00,weatherlink.com 1.10,2013-03-25 04:20:00,
2013-03-25 00:35:00,42.3,41.0,29.59,WNW,284,0.0,2.0,94,0.00,,,0.00,weatherlink.com 1.10,2013-03-25 04:35:00,
2013-03-25 00:50:00,42.2,41.0,29.59,WNW,290,0.0,1.0,94,0.00,,,0.00,weatherlink.com 1.10,2013-03-25 04:50:00,
2013-03-25 01:05:00,42.2,41.0,29.60,NW,309,0.0,0.0,94,0.00,,,0.00,weatherlink.com 1.10,2013-03-25 05:05:00,
2013-03-25 01:20:00,42.1,41.0,29.59,NNE,25,0.0,1.0,94,0.00,,,0.00,weatherlink.com 1.10,2013-03-25 05:20:00,
2013-03-25 01:35:00,42.0,40.0,29.58,NNW,328,0.0,1.0,94,0.00,,,0.00,weatherlink.com 1.10,2013-03-25 05:35:00,
2013-03-25 01:50:00,42.0,40.0,29.57,NW,323,0.0,0.0,94,0.00,,,0.00,weatherlink.com 1.10,2013-03-25 05:50:00,
2013-03-25 02:05:00,41.9,40.0,29.56,NW,319,0.0,0.0,94,0.00,,,0.00,weatherlink.com 1.10,2013-03-25 06:05:00,
2013-03-25 02:20:00,41.5,40.0,29.54,NW,312,0.0,2.0,94,0.00,,,0.00,weatherlink.com 1.10,2013-03-25 06:20:00,
2013-03-25 02:35:00,41.2,40.0,29.51,WNW,291,1.0,2.0,95,0.00,,,0.00,weatherlink.com 1.10,2013-03-25 06:35:00,
2013-03-25 02:50:00,40.9,40.0,29.52,WNW,291,0.0,4.0,95,0.00,,,0.00,weatherlink.com 1.10,2013-03-25 06:50:00,
2013-03-25 03:05:00,41.1,40.0,29.51,NW,304,2.0,2.0,95,0.00,,,0.00,weatherlink.com 1.10,2013-03-25 07:05:00,
2013-03-25 03:20:00,41.3,40.0,29.53,WSW,250,1.0,2.0,96,0.00,,,0.00,weatherlink.com 1.10,2013-03-25 07:20:00,
2013-03-25 03:35:00,41.4,40.0,29.53,WSW,255,0.0,1.0,96,0.00,,,0.00,weatherlink.com 1.10,2013-03-25 07:35:00,
2013-03-25 03:50:00,41.5,40.0,29.53,WSW,250,0.0,1.0,95,0.00,,,0.00,weatherlink.com 1.10,2013-03-25 07:50:00,
2013-03-25 04:05:00,41.6,40.0,29.54,NW,309,0.0,2.0,95,0.00,,,0.00,weatherlink.com 1.10,2013-03-25 08:05:00,
2013-03-25 04:20:00,41.5,40.0,29.55,WNW,288,1.0,3.0,95,0.00,,,0.00,weatherlink.com 1.10,2013-03-25 08:20:00,
2013-03-25 04:35:00,41.7,41.0,29.53,West,260,0.0,1.0,96,0.00,,,0.00,weatherlink.com 1.10,2013-03-25 08:35:00,
2013-03-25 04:50:00,41.9,41.0,29.55,West,266,0.0,2.0,95,0.00,,,0.00,weatherlink.com 1.10,2013-03-25 08:50:00,
2013-03-25 05:05:00,42.1,41.0,29.55,West,277,0.0,2.0,96,0.00,,,0.00,weatherlink.com 1.10,2013-03-25 09:05:00,
2013-03-25 05:20:00,42.2,41.0,29.55,West,274,0.0,4.0,96,0.00,,,0.00,weatherlink.com 1.10,2013-03-25 09:20:00,
2013-03-25 05:35:00,42.1,41.0,29.55,WSW,238,2.0,3.0,95,0.00,,,0.00,weatherlink.com 1.10,2013-03-25 09:35:00,
2013-03-25 05:50:00,42.1,41.0,29.55,WNW,287,1.0,3.0,95,0.00,,,0.00,weatherlink.com 1.10,2013-03-25 09:50:00,
2013-03-25 06:05:00,42.2,41.0,29.55,WSW,246,1.0,3.0,96,0.00,,,0.00,weatherlink.com 1.10,2013-03-25 10:05:00,
2013-03-25 06:20:00,42.4,41.0,29.55,WSW,242,2.0,5.0,96,0.00,,,0.00,weatherlink.com 1.10,2013-03-25 10:20:00,
2013-03-25 06:35:00,42.5,42.0,29.55,WNW,283,3.0,8.0,96,0.00,,,0.00,weatherlink.com 1.10,2013-03-25 10:35:00,
2013-03-25 06:50:00,42.5,42.0,29.56,SW,235,3.0,6.0,97,0.00,,,0.00,weatherlink.com 1.10,2013-03-25 10:50:00,
2013-03-25 07:05:00,42.4,42.0,29.57,WNW,302,4.0,8.0,97,0.00,,,0.00,weatherlink.com 1.10,2013-03-25 11:05:00,
2013-03-25 07:20:00,42.4,42.0,29.57,WNW,290,1.0,5.0,97,0.00,,,0.00,weatherlink.com 1.10,2013-03-25 11:20:00,
2013-03-25 07:35:00,42.6,42.0,29.57,West,278,3.0,6.0,97,0.00,,,0.00,weatherlink.com 1.10,2013-03-25 11:35:00,
2013-03-25 07:50:00,42.6,42.0,29.58,WSW,257,3.0,8.0,97,0.00,,,0.00,weatherlink.com 1.10,2013-03-25 11:50:00,
2013-03-25 08:05:00,42.7,42.0,29.58,WSW,238,2.0,7.0,96,0.00,,,0.00,weatherlink.com 1.10,2013-03-25 12:05:00,
2013-03-25 08:20:00,43.1,42.0,29.58,WNW,285,1.0,8.0,96,0.00,,,0.00,weatherlink.com 1.10,2013-03-25 12:20:00,
2013-03-25 08:35:00,43.6,42.0,29.58,West,274,3.0,4.0,95,0.00,,,0.00,weatherlink.com 1.10,2013-03-25 12:35:00,
2013-03-25 08:50:00,43.7,42.0,29.58,WSW,240,4.0,9.0,94,0.00,,,0.00,weatherlink.com 1.10,2013-03-25 12:50:00,
2013-03-25 09:05:00,43.9,42.0,29.59,NW,316,2.0,8.0,94,0.00,,,0.00,weatherlink.com 1.10,2013-03-25 13:05:00,
2013-03-25 09:20:00,44.1,42.0,29.59,SW,231,1.0,4.0,93,0.00,,,0.00,weatherlink.com 1.10,2013-03-25 13:20:00,
2013-03-25 09:35:00,43.8,42.0,29.59,WNW,290,2.0,6.0,94,0.00,,,0.00,weatherlink.com 1.10,2013-03-25 13:35:00,
2013-03-25 09:50:00,43.8,42.0,29.59,West,269,1.0,5.0,94,0.00,,,0.00,weatherlink.com 1.10,2013-03-25 13:50:00,
2013-03-25 10:05:00,44.0,42.0,29.59,West,278,0.0,8.0,94,0.00,,,0.00,weatherlink.com 1.10,2013-03-25 14:05:00,
2013-03-25 10:20:00,44.1,42.0,29.60,West,278,3.0,7.0,93,0.00,,,0.00,weatherlink.com 1.10,2013-03-25 14:20:00,
2013-03-25 10:35:00,44.2,42.0,29.60,West,266,4.0,7.0,93,0.00,,,0.00,weatherlink.com 1.10,2013-03-25 14:35:00,
2013-03-25 10:50:00,44.5,43.0,29.60,West,262,1.0,6.0,94,0.00,,,0.00,weatherlink.com 1.10,2013-03-25 14:50:00,
2013-03-25 11:05:00,44.5,43.0,29.59,WNW,286,1.0,4.0,93,0.00,,,0.00,weatherlink.com 1.10,2013-03-25 15:05:00,
2013-03-25 11:20:00,44.7,43.0,29.60,West,276,4.0,5.0,94,0.00,,,0.00,weatherlink.com 1.10,2013-03-25 15:20:00,
2013-03-25 11:35:00,45.5,44.0,29.60,West,276,3.0,6.0,93,0.00,,,0.00,weatherlink.com 1.10,2013-03-25 15:35:00,
2013-03-25 11:51:00,47.0,45.0,29.59,SW,229,3.0,5.0,92,0.00,,,0.00,weatherlink.com 1.10,2013-03-25 15:51:00,
2013-03-25 12:21:00,48.0,44.0,29.59,West,266,1.0,6.0,87,0.00,,,0.00,weatherlink.com 1.10,2013-03-25 16:21:00,
2013-03-25 12:36:00,47.7,44.0,29.59,WNW,283,3.0,8.0,86,0.00,,,0.00,weatherlink.com 1.10,2013-03-25 16:36:00,
2013-03-25 13:06:00,47.4,44.0,29.59,West,281,2.0,7.0,87,0.00,,,0.00,weatherlink.com 1.10,2013-03-25 17:06:00,
2013-03-25 13:21:00,46.9,43.0,29.59,WSW,255,4.0,7.0,86,0.00,,,0.00,weatherlink.com 1.10,2013-03-25 17:21:00,
2013-03-25 14:06:00,46.0,41.0,29.60,WNW,294,2.0,7.0,82,0.00,,,0.00,weatherlink.com 1.10,2013-03-25 18:06:00,
2013-03-25 14:51:00,44.8,42.0,29.60,West,266,0.0,6.0,88,0.00,,,0.00,weatherlink.com 1.10,2013-03-25 18:51:00,
2013-03-25 15:06:00,46.1,42.0,29.60,SW,228,0.0,5.0,86,0.00,,,0.00,weatherlink.com 1.10,2013-03-25 19:06:00,
2013-03-25 15:36:00,48.0,42.0,29.59,WNW,288,4.0,9.0,81,0.00,,,0.00,weatherlink.com 1.10,2013-03-25 19:36:00,
2013-03-25 16:06:00,47.8,41.0,29.59,West,272,2.0,4.0,77,0.00,,,0.00,weatherlink.com 1.10,2013-03-25 20:06:00,
2013-03-25 16:21:00,46.9,39.0,29.59,West,259,5.0,9.0,75,0.00,,,0.00,weatherlink.com 1.10,2013-03-25 20:21:00,
2013-03-25 16:36:00,44.8,39.0,29.60,WNW,295,1.0,7.0,80,0.00,,,0.00,weatherlink.com 1.10,2013-03-25 20:36:00,
2013-03-25 16:51:00,44.9,39.0,29.61,NW,304,2.0,9.0,79,0.00,,,0.00,weatherlink.com 1.10,2013-03-25 20:51:00,
2013-03-25 17:07:00,45.2,38.0,29.62,WNW,284,1.0,11.0,76,0.00,,,0.00,weatherlink.com 1.10,2013-03-25 21:07:00,
2013-03-25 17:21:00,45.1,38.0,29.62,West,277,2.0,7.0,76,0.00,,,0.00,weatherlink.com 1.10,2013-03-25 21:21:00,
2013-03-25 17:36:00,45.8,38.0,29.63,WNW,283,2.0,5.0,74,0.00,,,0.00,weatherlink.com 1.10,2013-03-25 21:36:00,
2013-03-25 17:51:00,46.3,38.0,29.64,WSW,250,3.0,7.0,73,0.00,,,0.00,weatherlink.com 1.10,2013-03-25 21:51:00,
2013-03-25 18:07:00,46.5,37.0,29.65,West,274,4.0,8.0,70,0.00,,,0.00,weatherlink.com 1.10,2013-03-25 22:07:00,
2013-03-25 18:21:00,46.3,37.0,29.65,West,271,2.0,7.0,69,0.00,,,0.00,weatherlink.com 1.10,2013-03-25 22:21:00,
2013-03-25 18:36:00,46.3,35.0,29.66,WNW,300,2.0,6.0,66,0.00,,,0.00,weatherlink.com 1.10,2013-03-25 22:36:00,
2013-03-25 18:51:00,46.1,35.0,29.67,WSW,238,0.0,5.0,65,0.00,,,0.00,weatherlink.com 1.10,2013-03-25 22:51:00,
2013-03-25 19:06:00,45.6,33.0,29.68,West,274,6.0,7.0,62,0.00,,,0.00,weatherlink.com 1.10,2013-03-25 23:06:00,
2013-03-25 19:36:00,44.8,32.0,29.70,WSW,245,1.0,4.0,62,0.00,,,0.00,weatherlink.com 1.10,2013-03-25 23:36:00,
2013-03-25 19:52:00,44.3,33.0,29.72,West,276,3.0,4.0,64,0.00,,,0.00,weatherlink.com 1.10,2013-03-25 23:52:00,
2013-03-25 20:07:00,44.1,33.0,29.73,WSW,253,1.0,4.0,64,0.00,,,0.00,weatherlink.com 1.10,2013-03-26 00:07:00,
2013-03-25 20:22:00,43.6,33.0,29.73,WNW,288,1.0,2.0,67,0.00,,,0.00,weatherlink.com 1.10,2013-03-26 00:22:00,
2013-03-25 20:37:00,43.7,33.0,29.74,WSW,249,1.0,4.0,67,0.00,,,0.00,weatherlink.com 1.10,2013-03-26 00:37:00,
2013-03-25 20:52:00,43.4,33.0,29.75,West,268,0.0,3.0,68,0.00,,,0.00,weatherlink.com 1.10,2013-03-26 00:52:00,
2013-03-25 21:07:00,42.9,33.0,29.75,West,267,1.0,2.0,68,0.00,,,0.00,weatherlink.com 1.10,2013-03-26 01:07:00,
2013-03-25 21:22:00,43.1,32.0,29.76,West,260,0.0,3.0,65,0.00,,,0.00,weatherlink.com 1.10,2013-03-26 01:22:00,
2013-03-25 21:37:00,42.7,32.0,29.77,West,274,2.0,2.0,65,0.00,,,0.00,weatherlink.com 1.10,2013-03-26 01:37:00,
2013-03-25 21:52:00,42.5,32.0,29.77,WNW,286,1.0,2.0,66,0.00,,,0.00,weatherlink.com 1.10,2013-03-26 01:52:00,
2013-03-25 22:07:00,42.1,32.0,29.78,West,266,0.0,2.0,67,0.00,,,0.00,weatherlink.com 1.10,2013-03-26 02:07:00,
2013-03-25 22:22:00,41.7,32.0,29.79,West,276,0.0,1.0,69,0.00,,,0.00,weatherlink.com 1.10,2013-03-26 02:22:00,
2013-03-25 22:37:00,41.4,32.0,29.79,WSW,255,1.0,2.0,70,0.00,,,0.00,weatherlink.com 1.10,2013-03-26 02:37:00,
2013-03-25 22:52:00,41.1,32.0,29.80,West,266,1.0,2.0,71,0.00,,,0.00,weatherlink.com 1.10,2013-03-26 02:52:00,
2013-03-25 23:07:00,40.7,32.0,29.80,WSW,243,1.0,2.0,72,0.00,,,0.00,weatherlink.com 1.10,2013-03-26 03:07:00,
2013-03-25 23:22:00,40.4,32.0,29.80,WSW,258,0.0,2.0,72,0.00,,,0.00,weatherlink.com 1.10,2013-03-26 03:22:00,
2013-03-25 23:37:00,40.5,32.0,29.80,West,266,0.0,2.0,71,0.00,,,0.00,weatherlink.com 1.10,2013-03-26 03:37:00,
2013-03-25 23:52:00,40.5,32.0,29.80,West,269,0.0,2.0,71,0.00,,,0.00,weatherlink.com 1.10,2013-03-26 03:52:00,